Nicktown, Pennsylvania
Current Conditions -  °F | °C
As of 11:35 AM on Friday 21 Nov 2014 (Local Time) from KIDI Reporting Station
Overcast Overcast  
Wind Chill: 12°   Ceiling: 3300
Heat Index: 23°   Visibility: 10mi
Dew Point:   Wind: 12mph
Humidity: 54%   Direction: 310°NW
Pressure: 30.44"   Gusts: NA
Location:  40.61°N, 78.8°W
Report Text: KIDI 211635Z AUTO 31010KT 10SM FEW024 BKN033 OVC040 M05/M13 A3044 RMK A01
Loading
Personal Weather Stations






























Interactive Weather Map New forecast layout! Learn more

10-Day Weather Forecast

Advertisements
Track Severe Weather on mobile